Time;durP1;ratioP1;P1;durP2;ratioP2;P2;SDS_P1;SDS_P2;PMS_P1;PMS_P2;Temp;Humidity;BMP_temperature;BMP_pressure;BME280_temperature;BME280_humidity;BME280_pressure;Samples;Min_cycle;Max_cycle;Signal;HPM_P1;HPM_P2
2021/10/02 00:36:54;;;;;;;2.75;1.80;;;;;;;10.67;74.09;100088.00;10316052;28;20109;-69
2021/10/02 00:47:18;;;;;;;4.13;2.20;;;;;;;10.60;74.96;100083.84;10342612;28;20397;-70
2021/10/02 00:52:21;;;;;;;3.65;2.35;;;;;;;10.55;75.02;100078.72;10341125;28;20078;-69
2021/10/02 00:57:22;;;;;;;5.88;2.30;;;;;;;10.14;76.62;100074.69;10323775;28;20086;-69
2021/10/02 01:02:45;;;;;;;4.00;2.63;;;;;;;10.29;76.38;100076.03;10340279;28;20039;-70
2021/10/02 01:07:58;;;;;;;5.03;2.55;;;;;;;10.47;75.40;100059.69;10340778;28;20408;-69
2021/10/02 01:13:09;;;;;;;2.60;2.40;;;;;;;10.24;75.97;100060.41;10341005;28;20050;-69
2021/10/02 01:18:32;;;;;;;4.78;2.75;;;;;;;10.11;76.84;100059.00;10341004;28;20093;-69
2021/10/02 01:24:00;;;;;;;3.33;2.83;;;;;;;10.15;76.92;100054.53;10340648;28;20400;-70
2021/10/02 01:29:07;;;;;;;3.10;2.80;;;;;;;10.07;77.31;100049.50;10340265;28;20054;-69
2021/10/02 01:34:26;;;;;;;3.10;2.85;;;;;;;9.91;77.74;100049.06;10322169;28;20074;-69
2021/10/02 01:50:21;;;;;;;3.00;2.70;;;;;;;9.91;78.80;100035.94;10422918;28;20430;-72
2021/10/02 01:55:24;;;;;;;3.05;2.75;;;;;;;9.94;78.94;100033.25;10420128;28;20045;-72
2021/10/02 02:00:27;;;;;;;2.70;2.50;;;;;;;10.03;78.58;100032.97;10386567;28;20045;-72
2021/10/02 02:05:30;;;;;;;3.50;3.17;;;;;;;10.02;78.64;100033.03;10421777;28;20509;-72
2021/10/02 02:10:32;;;;;;;4.45;3.50;;;;;;;9.88;78.83;100030.81;10420739;28;20083;-72
2021/10/02 02:15:35;;;;;;;3.17;2.70;;;;;;;9.75;79.77;100032.91;10419984;28;20053;-72
2021/10/02 02:20:43;;;;;;;3.70;3.40;;;;;;;9.99;78.66;100023.47;10419763;28;20490;-72
2021/10/02 02:25:44;;;;;;;3.35;3.05;;;;;;;9.98;78.99;100026.13;10385483;28;20045;-72
2021/10/02 02:30:46;;;;;;;4.05;3.15;;;;;;;10.00;79.13;100019.06;10419062;28;20044;-72
2021/10/02 02:35:49;;;;;;;3.38;2.85;;;;;;;10.02;78.70;100019.91;10400728;28;20057;-71
2021/10/02 02:40:51;;;;;;;3.80;3.50;;;;;;;10.04;79.08;100012.81;10418421;28;20053;-72
2021/10/02 02:45:57;;;;;;;4.15;2.80;;;;;;;9.84;79.02;100006.41;10418897;28;20049;-72
2021/10/02 02:51:00;;;;;;;3.63;3.33;;;;;;;10.03;79.13;100008.47;10402222;28;20048;-72
2021/10/02 02:56:12;;;;;;;4.43;3.72;;;;;;;9.99;79.29;100009.47;10418354;28;20049;-72
2021/10/02 03:01:15;;;;;;;3.50;2.85;;;;;;;9.98;79.70;100015.63;10419082;28;20058;-72
2021/10/02 03:06:19;;;;;;;3.78;3.40;;;;;;;9.86;80.02;100017.69;10418841;28;20064;-73
2021/10/02 03:11:23;;;;;;;4.82;3.05;;;;;;;9.80;80.25;100017.03;10417178;28;20553;-73
2021/10/02 03:16:26;;;;;;;4.63;3.50;;;;;;;9.59;80.71;100015.88;10417405;28;20103;-73
2021/10/02 03:21:29;;;;;;;4.68;3.15;;;;;;;9.46;81.66;100019.75;10399104;28;20042;-73
2021/10/02 03:26:32;;;;;;;3.53;3.22;;;;;;;9.66;81.49;100021.81;10417294;28;20045;-73
2021/10/02 03:31:34;;;;;;;3.97;3.22;;;;;;;9.88;80.44;100015.06;10417543;28;20466;-73
2021/10/02 03:36:36;;;;;;;3.25;2.80;;;;;;;9.80;80.81;100020.50;10417311;28;20048;-73
2021/10/02 03:41:38;;;;;;;3.20;2.88;;;;;;;9.63;81.70;100022.75;10416189;28;20406;-73
2021/10/02 03:46:40;;;;;;;3.80;3.50;;;;;;;9.54;82.01;100028.25;10416258;28;20111;-74
2021/10/02 03:51:46;;;;;;;4.10;3.22;;;;;;;9.53;82.10;100027.41;10416739;28;20045;-74
2021/10/02 03:56:47;;;;;;;8.05;3.60;;;;;;;9.65;81.20;100039.34;10399835;28;20057;-73
2021/10/02 04:01:49;;;;;;;3.95;3.35;;;;;;;9.52;82.02;100033.56;10416469;28;20048;-73
2021/10/02 04:06:51;;;;;;;5.15;3.38;;;;;;;9.67;81.56;100031.41;10416757;28;20410;-73
2021/10/02 04:11:53;;;;;;;3.50;3.20;;;;;;;9.64;82.10;100036.75;10398130;28;20128;-73
2021/10/02 04:16:57;;;;;;;3.70;2.78;;;;;;;9.59;81.68;100035.09;10416482;28;20049;-73
2021/10/02 04:21:58;;;;;;;3.55;3.25;;;;;;;9.62;81.68;100036.78;10428766;28;20041;-73
2021/10/02 04:27:00;;;;;;;5.38;3.75;;;;;;;9.71;81.42;100036.53;10411991;28;20053;-73
2021/10/02 04:32:02;;;;;;;3.45;3.15;;;;;;;9.71;81.48;100035.69;10412052;28;20045;-73
2021/10/02 04:37:04;;;;;;;3.80;3.10;;;;;;;9.55;81.91;100029.97;10429429;28;20045;-73
2021/10/02 04:42:05;;;;;;;4.10;3.65;;;;;;;9.71;81.59;100040.91;10429210;28;20084;-74
2021/10/02 04:47:07;;;;;;;3.45;3.17;;;;;;;9.68;81.55;100033.13;10411578;28;20057;-73
2021/10/02 04:52:08;;;;;;;4.28;3.20;;;;;;;9.73;81.16;100039.09;10411482;28;20097;-73
2021/10/02 04:57:10;;;;;;;4.68;3.17;;;;;;;9.58;82.13;100043.88;10411151;28;20056;-73
2021/10/02 05:02:11;;;;;;;3.42;3.13;;;;;;;9.49;82.19;100038.88;10428738;28;20530;-73
2021/10/02 05:07:13;;;;;;;6.22;3.53;;;;;;;9.55;81.88;100035.22;10428363;28;20049;-73
2021/10/02 05:12:15;;;;;;;3.20;2.90;;;;;;;9.57;81.88;100034.28;10428932;28;20042;-73
2021/10/02 05:17:17;;;;;;;4.05;3.65;;;;;;;9.62;82.19;100028.91;10410659;28;20049;-73
2021/10/02 05:22:19;;;;;;;3.88;3.58;;;;;;;9.77;81.24;100023.22;10428381;28;20052;-72
2021/10/02 05:27:20;;;;;;;4.07;3.72;;;;;;;9.75;81.42;100021.56;10411535;28;20053;-73
2021/10/02 05:32:23;;;;;;;4.22;3.90;;;;;;;9.74;81.21;100033.84;10423152;28;20438;-73
2021/10/02 05:37:25;;;;;;;4.72;4.30;;;;;;;9.77;81.46;100022.38;10405322;28;20053;-73
2021/10/02 05:42:27;;;;;;;3.53;3.22;;;;;;;9.77;81.48;100038.13;10422973;28;20057;-72
2021/10/02 05:47:29;;;;;;;4.43;4.03;;;;;;;9.62;81.86;100030.69;10423296;28;20045;-72
2021/10/02 05:52:30;;;;;;;4.60;4.20;;;;;;;9.66;82.45;100029.69;10421038;28;20103;-72
2021/10/02 05:57:32;;;;;;;5.93;4.28;;;;;;;9.82;81.14;100041.47;10403327;28;20458;-73
2021/10/02 06:02:34;;;;;;;5.38;4.43;;;;;;;9.69;81.78;100047.97;10402779;28;20053;-73
2021/10/02 06:07:36;;;;;;;4.70;3.80;;;;;;;9.80;81.73;100046.78;10419147;28;20056;-73
2021/10/02 06:12:38;;;;;;;4.43;4.03;;;;;;;9.97;81.38;100048.06;10420016;28;20041;-74
2021/10/02 06:17:39;;;;;;;5.15;4.65;;;;;;;10.11;80.17;100048.50;10421048;28;20046;-74
2021/10/02 06:22:41;;;;;;;4.15;3.67;;;;;;;10.13;80.38;100040.56;10403388;28;20048;-74
2021/10/02 06:27:43;;;;;;;5.18;4.68;;;;;;;10.24;79.54;100049.91;10421207;28;20488;-74
2021/10/02 06:32:45;;;;;;;6.45;4.35;;;;;;;10.28;79.83;100051.53;10420710;28;20084;-73
2021/10/02 06:37:46;;;;;;;4.55;4.10;;;;;;;10.43;79.38;100067.72;10419426;28;20049;-73
2021/10/02 06:42:48;;;;;;;5.80;4.00;;;;;;;10.54;78.49;100061.25;10420172;28;20037;-74
2021/10/02 06:47:50;;;;;;;4.57;4.15;;;;;;;10.64;78.56;100067.06;10419876;28;20052;-74
2021/10/02 06:52:51;;;;;;;4.72;4.32;;;;;;;10.58;79.03;100062.88;10419254;28;20045;-74
2021/10/02 06:57:53;;;;;;;5.72;4.25;;;;;;;10.68;79.61;100068.69;10385492;28;20218;-74
2021/10/02 07:02:54;;;;;;;4.40;4.00;;;;;;;11.01;78.08;100063.25;10419252;28;20049;-75
2021/10/02 07:07:57;;;;;;;5.75;4.22;;;;;;;11.23;77.83;100060.75;10419414;28;20491;-74
2021/10/02 07:12:59;;;;;;;4.90;4.50;;;;;;;11.48;77.57;100058.16;10401526;28;20045;-75
2021/10/02 07:18:01;;;;;;;4.95;4.45;;;;;;;11.66;76.34;100049.59;10419298;28;20087;-75
2021/10/02 07:23:02;;;;;;;6.35;4.30;;;;;;;11.75;76.73;100053.66;10418845;28;20053;-74
2021/10/02 07:28:04;;;;;;;4.60;4.20;;;;;;;11.65;77.52;100058.41;10400700;28;20060;-74
2021/10/02 07:33:05;;;;;;;4.53;4.13;;;;;;;11.99;77.60;100052.78;10417352;28;20041;-74
2021/10/02 07:38:07;;;;;;;5.43;4.32;;;;;;;12.52;74.02;100060.41;10401011;28;20400;-74
2021/10/02 07:43:12;;;;;;;6.25;4.13;;;;;;;12.61;73.93;100054.78;10399573;28;20438;-72
2021/10/02 07:48:18;;;;;;;4.80;4.38;;;;;;;12.59;75.59;100053.13;10417849;28;20049;-72
2021/10/02 07:53:22;;;;;;;4.85;4.45;;;;;;;12.99;72.97;100046.25;10416303;28;20045;-72
2021/10/02 07:58:25;;;;;;;4.93;3.97;;;;;;;13.02;72.42;100033.78;10417281;28;20522;-73
2021/10/02 08:03:28;;;;;;;4.53;4.13;;;;;;;13.22;73.01;100032.97;10397795;28;20053;-72
2021/10/02 08:08:29;;;;;;;4.43;4.03;;;;;;;13.34;72.08;100039.50;10417118;28;20041;-72
2021/10/02 08:13:31;;;;;;;4.47;3.92;;;;;;;13.57;71.69;100034.06;10416986;28;20041;-73
2021/10/02 08:18:38;;;;;;;4.47;3.72;;;;;;;13.78;71.72;100036.69;10416981;28;20068;-72
2021/10/02 08:23:42;;;;;;;4.82;4.40;;;;;;;13.81;71.33;100025.97;10398461;28;20054;-72
2021/10/02 08:28:52;;;;;;;4.30;3.75;;;;;;;14.18;70.12;100022.50;10416548;28;20561;-71
2021/10/02 08:33:54;;;;;;;4.03;3.63;;;;;;;14.03;70.21;100021.44;10416063;28;20045;-72
2021/10/02 08:38:55;;;;;;;4.88;3.50;;;;;;;14.15;71.00;100020.00;10416411;28;20049;-72
2021/10/02 08:43:59;;;;;;;5.00;3.95;;;;;;;14.50;70.05;100017.50;10397772;28;20107;-72
2021/10/02 08:49:30;;;;;;;6.00;4.25;;;;;;;14.82;69.54;100013.28;10416000;28;20049;-72
2021/10/02 08:54:38;;;;;;;6.07;4.15;;;;;;;15.49;65.50;100009.84;10389621;28;20042;-73
2021/10/02 08:59:45;;;;;;;4.63;3.70;;;;;;;15.91;65.21;100010.34;10415731;28;20041;-74
2021/10/02 09:04:47;;;;;;;4.30;3.90;;;;;;;16.39;62.74;100017.41;10418244;28;20457;-73
2021/10/02 09:09:54;;;;;;;3.42;3.13;;;;;;;16.54;63.84;100008.56;10423498;28;20402;-71
2021/10/02 09:14:56;;;;;;;5.45;3.03;;;;;;;17.03;61.36;100016.38;10422989;28;20048;-72
2021/10/02 09:19:59;;;;;;;4.10;3.70;;;;;;;16.81;61.98;100007.94;10404790;28;20053;-73
2021/10/02 09:25:04;;;;;;;4.85;3.20;;;;;;;16.74;63.25;100003.97;10423075;28;20068;-72
2021/10/02 09:30:08;;;;;;;3.72;3.33;;;;;;;17.19;60.04;99994.25;10405842;28;20079;-72
2021/10/02 09:35:13;;;;;;;6.95;3.35;;;;;;;17.04;62.03;99998.63;10421948;28;20057;-72
2021/10/02 09:40:18;;;;;;;3.70;3.33;;;;;;;17.09;61.19;100009.88;10422594;28;20084;-72
2021/10/02 09:45:28;;;;;;;3.85;3.42;;;;;;;17.35;60.24;99997.66;10404225;28;20073;-73
2021/10/02 09:50:33;;;;;;;4.93;3.75;;;;;;;18.06;57.43;99989.75;10422008;28;20045;-72
2021/10/02 09:55:44;;;;;;;3.20;2.90;;;;;;;18.52;57.69;99988.59;10403657;28;20498;-71
2021/10/02 10:00:48;;;;;;;2.60;2.40;;;;;;;19.32;54.71;99968.13;10441174;28;20037;-71
2021/10/02 10:05:53;;;;;;;2.58;2.38;;;;;;;19.73;53.60;99965.25;10409218;28;20037;-71
2021/10/02 10:11:05;;;;;;;3.10;2.30;;;;;;;20.25;52.44;99960.66;10462660;28;20041;-71
2021/10/02 10:16:08;;;;;;;2.72;2.35;;;;;;;20.49;51.21;99958.88;10422955;28;20053;-71
2021/10/02 10:21:11;;;;;;;2.67;2.20;;;;;;;20.99;49.60;99948.06;10420349;28;20041;-71
2021/10/02 10:26:15;;;;;;;2.55;1.70;;;;;;;21.09;51.14;99941.03;10403052;28;20451;-72
2021/10/02 10:31:26;;;;;;;5.25;2.10;;;;;;;21.44;47.99;99943.66;10424911;28;20045;-71
2021/10/02 10:36:31;;;;;;;3.08;1.65;;;;;;;21.79;48.45;99940.88;10462712;28;20067;-72
2021/10/02 10:41:33;;;;;;;2.58;1.65;;;;;;;22.18;47.97;99933.31;10462588;28;20048;-72
2021/10/02 10:46:36;;;;;;;2.72;1.60;;;;;;;22.81;45.11;99926.25;10461700;28;20051;-73
2021/10/02 10:51:40;;;;;;;2.67;1.73;;;;;;;22.79;43.55;99927.34;10461502;28;20041;-71
2021/10/02 10:56:46;;;;;;;2.60;1.75;;;;;;;22.73;43.36;99920.69;10462433;28;20037;-71
2021/10/02 11:01:49;;;;;;;2.28;1.40;;;;;;;23.19;44.42;99905.22;10461957;28;20464;-71
2021/10/02 11:06:55;;;;;;;2.03;1.50;;;;;;;23.08;41.90;99898.13;10431995;28;20125;-71
2021/10/02 11:11:59;;;;;;;1.80;1.38;;;;;;;23.02;44.95;99888.78;10378903;28;20495;-72
2021/10/02 11:17:03;;;;;;;2.40;1.58;;;;;;;23.70;43.54;99897.19;10378090;28;20041;-72
2021/10/02 11:22:47;;;;;;;1.92;1.48;;;;;;;23.37;43.28;99899.13;10360236;28;20108;-71
2021/10/02 11:27:52;;;;;;;2.28;1.40;;;;;;;23.25;41.90;99899.34;10360656;28;20050;-72
2021/10/02 11:32:54;;;;;;;3.80;0.93;;;;;;;23.73;40.02;99899.59;10377282;28;20053;-72
2021/10/02 11:38:00;;;;;;;2.45;1.33;;;;;;;23.43;41.50;99878.97;10376481;28;20515;-73
2021/10/02 11:43:17;;;;;;;;;;;;;;;23.43;38.67;99878.97;10360327;28;20049;-71
2021/10/02 11:48:30;;;;;;;1.08;0.70;;;;;;;23.66;35.46;99876.97;10378523;28;19975;-72
2021/10/02 11:53:41;;;;;;;0.90;0.80;;;;;;;23.79;34.65;99866.00;10378068;28;20068;-72
2021/10/02 11:58:43;;;;;;;1.15;1.05;;;;;;;23.50;35.29;99858.66;10360579;28;20420;-72
2021/10/02 12:03:46;;;;;;;1.15;0.90;;;;;;;23.51;35.35;99844.28;10376424;28;20038;-71
2021/10/02 12:08:49;;;;;;;1.38;0.90;;;;;;;23.56;34.00;99835.81;10376314;28;20084;-72
2021/10/02 12:13:54;;;;;;;1.08;0.90;;;;;;;22.87;37.11;99831.94;10375958;28;20500;-72
2021/10/02 12:19:10;;;;;;;1.20;1.02;;;;;;;22.39;37.79;99827.09;10376248;28;20454;-72
2021/10/02 12:24:26;;;;;;;1.23;0.88;;;;;;;22.07;37.98;99821.72;10375887;28;20092;-72
2021/10/02 12:29:34;;;;;;;1.20;1.10;;;;;;;22.15;40.40;99832.69;10376790;28;20435;-72
2021/10/02 12:34:39;;;;;;;1.27;1.00;;;;;;;21.95;42.42;99822.72;10376035;28;20104;-71
2021/10/02 12:39:41;;;;;;;1.40;1.27;;;;;;;22.08;41.93;99811.88;10378667;28;20042;-73
2021/10/02 12:44:51;;;;;;;1.90;1.70;;;;;;;22.03;41.88;99817.59;10383632;28;20046;-73
2021/10/02 12:49:56;;;;;;;1.33;1.23;;;;;;;21.63;40.63;99810.16;10384460;28;20070;-74
2021/10/02 12:55:00;;;;;;;1.27;1.10;;;;;;;21.63;40.97;99799.47;10383796;28;20434;-73
2021/10/02 13:00:10;;;;;;;1.52;1.40;;;;;;;21.73;40.26;99798.72;10383094;28;20447;-72
2021/10/02 13:05:13;;;;;;;2.42;1.50;;;;;;;21.67;41.71;99803.59;10382581;28;20100;-74
2021/10/02 13:10:20;;;;;;;2.50;1.58;;;;;;;21.70;41.11;99799.84;10382450;28;20054;-73
2021/10/02 13:15:30;;;;;;;4.07;1.50;;;;;;;21.76;42.01;99793.13;10382411;28;20038;-72
2021/10/02 13:20:50;;;;;;;1.58;1.42;;;;;;;21.56;41.65;99800.09;10383291;28;20491;-72
2021/10/02 13:25:53;;;;;;;1.85;1.50;;;;;;;21.34;43.53;99795.66;10364163;28;20506;-72
2021/10/02 13:30:57;;;;;;;1.42;1.33;;;;;;;21.36;41.79;99796.34;10383416;28;20443;-73
2021/10/02 13:35:59;;;;;;;2.42;1.27;;;;;;;21.08;41.37;99792.34;10364131;28;20049;-73
2021/10/02 13:41:04;;;;;;;2.78;1.33;;;;;;;20.95;42.00;99789.78;10363296;28;20078;-74
2021/10/02 13:46:07;;;;;;;1.50;1.40;;;;;;;20.94;41.62;99788.09;10381079;28;20042;-72
2021/10/02 13:51:09;;;;;;;1.95;1.45;;;;;;;20.98;42.46;99786.84;10361443;28;20034;-73
2021/10/02 13:56:10;;;;;;;2.85;2.03;;;;;;;21.04;42.66;99790.88;10380052;28;20050;-72
2021/10/02 14:01:12;;;;;;;2.05;1.67;;;;;;;21.01;42.50;99785.78;10379515;28;20038;-72
2021/10/02 14:06:14;;;;;;;3.63;2.30;;;;;;;21.08;42.29;99778.97;10380105;28;20080;-72
2021/10/02 14:11:17;;;;;;;4.13;1.83;;;;;;;20.92;43.42;99769.50;10380174;28;20490;-72
2021/10/02 14:16:21;;;;;;;2.70;1.80;;;;;;;20.68;44.24;99760.75;10379019;28;20448;-72
2021/10/02 14:21:22;;;;;;;2.60;1.90;;;;;;;20.87;43.59;99773.50;10378866;28;20126;-72
2021/10/02 14:26:24;;;;;;;3.25;2.00;;;;;;;20.63;44.08;99763.78;10361166;28;20057;-72
2021/10/02 14:31:26;;;;;;;3.45;1.92;;;;;;;20.55;43.68;99779.53;10378709;28;20046;-72
2021/10/02 14:36:27;;;;;;;2.75;1.90;;;;;;;20.63;43.81;99768.28;10378262;28;20068;-72
2021/10/02 14:41:29;;;;;;;2.17;1.98;;;;;;;20.37;45.37;99770.25;10373032;28;20410;-71
2021/10/02 14:46:30;;;;;;;3.85;2.08;;;;;;;20.13;46.43;99764.94;10374084;28;20049;-72
2021/10/02 14:51:33;;;;;;;2.97;1.98;;;;;;;20.19;46.91;99763.59;10373611;28;20038;-72
2021/10/02 14:56:35;;;;;;;3.08;2.45;;;;;;;20.36;46.82;99760.50;10377381;28;20555;-71
2021/10/02 15:01:39;;;;;;;4.07;2.13;;;;;;;20.36;46.81;99758.72;10378310;28;20046;-71
2021/10/02 15:06:44;;;;;;;4.75;2.30;;;;;;;20.21;48.44;99759.88;10355165;28;20052;-73
2021/10/02 15:11:46;;;;;;;2.97;2.25;;;;;;;19.87;49.83;99756.22;10361794;28;20053;-72
2021/10/02 15:16:48;;;;;;;3.30;3.00;;;;;;;19.60;52.06;99762.63;10378545;28;20385;-72
2021/10/02 15:21:57;;;;;;;4.57;2.90;;;;;;;19.58;52.23;99756.53;10379262;28;20042;-74
2021/10/02 15:27:06;;;;;;;4.80;3.38;;;;;;;19.70;52.81;99745.94;10360725;28;20416;-73
2021/10/02 15:32:11;;;;;;;5.80;3.42;;;;;;;19.74;52.80;99744.75;10375856;28;20046;-74
2021/10/02 15:37:13;;;;;;;4.78;3.40;;;;;;;19.64;52.61;99737.44;10377035;28;20045;-73
2021/10/02 15:42:14;;;;;;;4.57;3.72;;;;;;;19.50;53.19;99742.91;10377017;28;20046;-72
2021/10/02 15:47:18;;;;;;;4.63;4.22;;;;;;;19.28;53.93;99734.78;10376726;28;20073;-72
2021/10/02 15:52:20;;;;;;;6.10;3.58;;;;;;;19.04;54.94;99732.94;10376488;28;20403;-72
2021/10/02 15:57:24;;;;;;;4.90;4.40;;;;;;;18.91;55.81;99729.44;10375935;28;20077;-72
2021/10/02 16:02:39;;;;;;;4.60;4.20;;;;;;;18.54;57.07;99726.66;10358677;28;20439;-74
2021/10/02 16:07:44;;;;;;;4.43;3.38;;;;;;;18.45;57.84;99723.78;10376520;28;20069;-74
2021/10/02 16:13:00;;;;;;;6.25;4.68;;;;;;;18.26;58.53;99724.22;10375552;28;20042;-75
2021/10/02 16:18:09;;;;;;;9.40;4.22;;;;;;;18.18;58.77;99714.09;10375475;28;20538;-74
2021/10/02 16:23:12;;;;;;;11.15;4.97;;;;;;;17.92;59.62;99710.53;10355767;28;20041;-75
2021/10/02 16:28:14;;;;;;;5.80;4.65;;;;;;;17.88;60.04;99704.59;10372333;28;20050;-74
2021/10/02 16:33:15;;;;;;;5.82;5.25;;;;;;;17.60;60.98;99700.19;10375278;28;20046;-75
2021/10/02 16:38:17;;;;;;;9.35;4.78;;;;;;;17.43;61.28;99702.25;10356978;28;20053;-76
2021/10/02 16:43:18;;;;;;;6.82;4.93;;;;;;;17.08;62.46;99703.59;10375141;28;20034;-75
2021/10/02 16:48:22;;;;;;;6.05;5.35;;;;;;;17.23;62.38;99698.25;10375413;28;20050;-76
2021/10/02 16:53:24;;;;;;;7.22;5.75;;;;;;;16.93;63.45;99693.09;10357635;28;20137;-75
2021/10/02 16:58:26;;;;;;;5.78;5.25;;;;;;;16.75;64.58;99693.31;10374974;28;20054;-76
2021/10/02 17:03:27;;;;;;;5.97;5.00;;;;;;;16.51;64.91;99700.09;10375152;28;20045;-74
2021/10/02 17:08:29;;;;;;;6.00;5.40;;;;;;;16.33;66.42;99702.91;10374977;28;20061;-76
2021/10/02 17:13:31;;;;;;;5.38;4.90;;;;;;;16.07;66.89;99696.56;10374653;28;20406;-75
2021/10/02 17:18:32;;;;;;;6.32;5.82;;;;;;;15.98;67.73;99704.19;10358433;28;20057;-74
2021/10/02 17:23:35;;;;;;;6.50;6.00;;;;;;;15.82;68.08;99691.84;10373981;28;20112;-76
2021/10/02 17:28:37;;;;;;;6.13;5.53;;;;;;;15.66;68.79;99695.47;10381742;28;20045;-75
2021/10/02 17:33:39;;;;;;;6.70;6.00;;;;;;;15.63;69.22;99693.84;10381424;28;20046;-74
2021/10/02 17:38:41;;;;;;;12.13;9.55;;;;;;;15.74;69.45;99690.59;10381121;28;20072;-76
2021/10/02 17:43:43;;;;;;;7.82;7.03;;;;;;;15.52;70.00;99685.66;10363830;28;20041;-75
2021/10/02 17:48:46;;;;;;;7.78;6.97;;;;;;;15.46;70.84;99681.56;10382369;28;20111;-75
2021/10/02 17:53:48;;;;;;;8.85;8.05;;;;;;;15.38;70.92;99670.56;10362814;28;20038;-75
2021/10/02 17:58:49;;;;;;;10.50;6.75;;;;;;;15.36;71.93;99678.59;10362953;28;20164;-74
2021/10/02 18:03:51;;;;;;;7.82;7.03;;;;;;;15.49;70.90;99678.72;10380418;28;20041;-76
2021/10/02 18:08:54;;;;;;;7.30;6.43;;;;;;;15.30;71.58;99681.56;10379982;28;20049;-73
2021/10/02 18:13:55;;;;;;;13.07;11.68;;;;;;;15.21;71.70;99678.59;10362672;28;20045;-75
2021/10/02 18:18:57;;;;;;;8.95;8.15;;;;;;;15.07;72.16;99674.94;10381056;28;20052;-73
2021/10/02 18:23:59;;;;;;;10.27;8.68;;;;;;;14.92;72.93;99677.56;10379762;28;20487;-75
2021/10/02 18:29:01;;;;;;;8.27;7.45;;;;;;;14.90;74.14;99669.72;10362279;28;20082;-74
2021/10/02 18:34:02;;;;;;;7.43;6.35;;;;;;;14.92;73.55;99670.50;10379041;28;20046;-75
2021/10/02 18:39:04;;;;;;;7.53;6.82;;;;;;;14.76;72.77;99667.84;10378948;28;20038;-74
2021/10/02 18:44:06;;;;;;;7.30;6.70;;;;;;;14.67;72.56;99673.63;10378193;28;20100;-74
2021/10/02 18:49:10;;;;;;;6.63;6.13;;;;;;;14.60;72.92;99673.09;10378489;28;20103;-74
2021/10/02 18:54:11;;;;;;;6.13;5.55;;;;;;;14.53;73.08;99665.59;10378752;28;20092;-74
2021/10/02 18:59:13;;;;;;;6.70;6.10;;;;;;;14.62;74.97;99673.03;10378686;28;20053;-74
2021/10/02 19:04:15;;;;;;;7.07;6.47;;;;;;;14.53;74.94;99677.03;10377853;28;20038;-73
2021/10/02 19:09:17;;;;;;;7.10;6.18;;;;;;;14.61;75.08;99668.69;10377626;28;20062;-74
2021/10/02 19:14:19;;;;;;;6.38;5.80;;;;;;;14.45;75.47;99667.75;10377803;28;20046;-74
2021/10/02 19:19:20;;;;;;;7.07;6.53;;;;;;;14.42;75.04;99665.28;10378158;28;20100;-74
2021/10/02 19:24:22;;;;;;;8.05;7.32;;;;;;;14.49;75.54;99653.47;10360381;28;20049;-74
2021/10/02 19:29:24;;;;;;;7.90;7.20;;;;;;;14.29;76.21;99649.22;10378212;28;20104;-75
2021/10/02 19:34:25;;;;;;;8.93;8.15;;;;;;;14.40;75.75;99654.78;10377282;28;20045;-74
2021/10/02 19:39:27;;;;;;;9.20;8.50;;;;;;;14.32;76.03;99664.91;10377025;28;20046;-72
2021/10/02 19:44:29;;;;;;;7.85;7.25;;;;;;;14.14;75.59;99672.03;10378383;28;20416;-72
2021/10/02 19:49:31;;;;;;;9.40;8.60;;;;;;;14.16;75.44;99666.66;10377103;28;20050;-72
2021/10/02 19:54:33;;;;;;;10.02;9.32;;;;;;;14.01;76.14;99665.66;10377604;28;20133;-72
2021/10/02 19:59:34;;;;;;;10.48;9.70;;;;;;;13.96;75.66;99665.91;10378988;28;20121;-72
2021/10/02 20:04:37;;;;;;;10.68;9.88;;;;;;;13.95;75.10;99656.28;10377010;28;20057;-72
2021/10/02 20:09:39;;;;;;;10.80;10.00;;;;;;;14.18;74.77;99648.94;10376321;28;20045;-72
2021/10/02 20:14:40;;;;;;;11.25;10.25;;;;;;;14.39;73.68;99634.56;10376730;28;20046;-72
2021/10/02 20:19:42;;;;;;;10.10;9.05;;;;;;;14.43;72.60;99630.81;10377883;28;20042;-73
2021/10/02 20:24:43;;;;;;;10.68;9.88;;;;;;;14.54;71.19;99639.06;10376579;28;20041;-72
2021/10/02 20:29:45;;;;;;;10.55;9.75;;;;;;;14.70;70.55;99640.84;10376708;28;20084;-71
2021/10/02 20:34:49;;;;;;;10.65;9.82;;;;;;;14.83;69.73;99645.41;10376461;28;20046;-72
2021/10/02 20:39:51;;;;;;;10.57;9.68;;;;;;;14.76;69.58;99646.69;10375094;28;20455;-73
2021/10/02 20:44:53;;;;;;;11.68;10.88;;;;;;;14.78;69.97;99643.94;10375944;28;20100;-71
2021/10/02 20:49:55;;;;;;;12.52;11.43;;;;;;;14.79;69.77;99641.22;10376158;28;20042;-73
2021/10/02 20:54:59;;;;;;;12.18;11.05;;;;;;;14.82;69.95;99634.88;10376572;28;20045;-73
2021/10/02 21:00:01;;;;;;;11.60;10.50;;;;;;;14.68;70.86;99637.44;10378097;28;20049;-73
2021/10/02 21:05:03;;;;;;;13.88;12.77;;;;;;;14.82;70.39;99634.88;10384426;28;20073;-72
2021/10/02 21:10:06;;;;;;;12.88;11.88;;;;;;;14.66;70.85;99634.06;10366289;28;20066;-73
2021/10/02 21:15:09;;;;;;;13.85;12.85;;;;;;;14.85;70.20;99632.09;10383488;28;20073;-72
2021/10/02 21:20:11;;;;;;;14.88;13.77;;;;;;;14.92;69.70;99625.53;10383871;28;20080;-73
2021/10/02 21:25:14;;;;;;;14.85;13.75;;;;;;;14.86;69.99;99625.84;10383209;28;20076;-72
2021/10/02 21:30:20;;;;;;;15.68;14.48;;;;;;;14.91;69.57;99626.44;10367517;28;20080;-72
2021/10/02 21:35:23;;;;;;;14.52;13.52;;;;;;;14.77;70.04;99621.06;10366700;28;20073;-72
2021/10/02 21:40:25;;;;;;;15.90;14.85;;;;;;;14.84;69.42;99618.00;10349556;28;20077;-73
2021/10/02 21:45:27;;;;;;;16.40;15.07;;;;;;;14.83;69.70;99618.06;10382482;28;20046;-72
2021/10/02 21:50:28;;;;;;;16.75;15.45;;;;;;;14.81;69.26;99606.72;10381155;28;20062;-72
2021/10/02 21:55:30;;;;;;;16.70;15.25;;;;;;;14.70;69.37;99595.88;10363993;28;20041;-71
2021/10/02 22:00:32;;;;;;;16.98;15.57;;;;;;;14.82;68.05;99595.19;10382301;28;20129;-72
2021/10/02 22:05:33;;;;;;;15.65;14.52;;;;;;;14.80;67.74;99591.81;10381124;28;20073;-72
2021/10/02 22:10:35;;;;;;;15.65;14.40;;;;;;;14.75;67.28;99589.41;10380569;28;20518;-73
2021/10/02 22:15:37;;;;;;;16.17;14.70;;;;;;;14.76;67.22;99572.59;10380748;28;20045;-71
2021/10/02 22:20:39;;;;;;;16.52;15.23;;;;;;;14.71;66.52;99577.28;10363998;28;20041;-71
2021/10/02 22:25:45;;;;;;;15.25;14.15;;;;;;;14.69;66.30;99570.38;10379969;28;20507;-72
2021/10/02 22:30:47;;;;;;;16.65;15.20;;;;;;;14.70;66.01;99567.66;10380883;28;20065;-72
2021/10/02 22:35:52;;;;;;;15.55;14.10;;;;;;;14.64;65.88;99567.97;10379745;28;20117;-72
2021/10/02 22:40:54;;;;;;;15.63;14.52;;;;;;;14.48;66.22;99573.28;10379623;28;20041;-72
2021/10/02 22:45:56;;;;;;;15.63;14.52;;;;;;;14.43;66.04;99580.56;10378941;28;20041;-72
2021/10/02 22:50:57;;;;;;;14.68;13.65;;;;;;;14.37;66.02;99559.75;10379014;28;20169;-72
2021/10/02 22:56:00;;;;;;;15.88;14.35;;;;;;;14.43;65.49;99564.69;10378899;28;20046;-74
2021/10/02 23:01:03;;;;;;;14.73;13.75;;;;;;;14.39;65.24;99571.13;10379224;28;20050;-72
2021/10/02 23:06:04;;;;;;;15.00;13.85;;;;;;;14.40;64.84;99559.59;10378613;28;20042;-72
2021/10/02 23:11:07;;;;;;;14.68;13.35;;;;;;;14.37;65.13;99567.69;10361768;28;20104;-71
2021/10/02 23:16:11;;;;;;;17.20;13.60;;;;;;;14.33;64.98;99560.84;10361165;28;20045;-73
2021/10/02 23:21:14;;;;;;;14.80;13.43;;;;;;;14.35;64.59;99567.78;10361398;28;20408;-71
2021/10/02 23:26:19;;;;;;;14.32;13.32;;;;;;;14.11;65.58;99556.72;10378905;28;20038;-72
2021/10/02 23:31:23;;;;;;;14.40;12.93;;;;;;;14.13;65.25;99560.16;10377954;28;20108;-71
2021/10/02 23:36:27;;;;;;;13.30;12.10;;;;;;;14.12;65.20;99555.81;10377290;28;20049;-73
2021/10/02 23:41:28;;;;;;;14.02;13.02;;;;;;;14.18;64.85;99551.13;10377073;28;20046;-71
2021/10/02 23:46:30;;;;;;;13.27;12.23;;;;;;;14.12;64.51;99544.38;10377546;28;20399;-72
2021/10/02 23:51:32;;;;;;;13.73;12.75;;;;;;;14.18;64.30;99530.84;10377482;28;20389;-72
2021/10/02 23:56:36;;;;;;;12.55;11.75;;;;;;;13.98;64.85;99531.91;10377001;28;20045;-72
